Wheeling Ohio County Airport
KHLG : now visible

Airfield :











YOU CAN JOIN US ON...

 
LOGIN :

Register | Disclaimer

   EN    FR    IT 

 









Legend :    VFR   Marginal VFR   IFR   Intensive IFR   Very Intensive IFR
Visi :
Ceiling :
>= 8 km
>= 3000ft
5 to 8 km
1000 to 3000 ft
1500m to 5 km
500 to 1000 ft
800 to 1500m
200 to 500 ft
< 800m
< 200 ft
Symbols :   Thunderstorms  Fog  Heavy snow  Heavy precipitations  Wind > 20 kt






- Airport Elevation : 1195 ft


KHLG - Wheeling Ohio County

CURRENT METAR :
  • 290353Z AUTO 19004KT 10SM FEW075 SCT090 OVC110 14/13 A2997 RMK AO2 RAB16E40 SLP148 P0001 T01440133

EXPIRED METARs :
  • 290253Z AUTO 05006KT 10SM OVC085 15/13 A2997 RMK AO2 SLP145 T01500133 53006
  • 290153Z 23003KT 10SM FEW090 SCT110 16/13 A2996 RMK AO2 LTG DSNT W AND NW SLP142 T01610128
  • 290053Z 18003KT 10SM FEW080 SCT095 OVC110 16/13 A2995 RMK AO2 SLP141 T01610133
  • 282353Z 12004KT 10SM BKN090 OVC110 16/14 A2995 RMK AO2 RAB08E23 SLP141 P0002 60005 T01610139 10228 20156 51009

TAF KHLG
Valid from the 29 at 00:00 until the 30 at 00:00 UTC


282320Z 2900/2924 VRB05KT P6SM BKN100
FM291100 VRB05KT 6SM -RA BKN035
FM291400 26006KT P6SM BKN025
PROB30 2920/2923 5SM -TSRA BKN015CB
KZOB FIR / North America



MET'MAP, your aeronautical weather chart ! - Copyright ORBIFLY December 2007 - Disclaimer

ORBIFLY MET'MAP TEAM :

Programming & Development : Alexandra Zaïnal
Original concept : Baudouin d'Aumeries
Technical & hardware support : Manuel Goepfert
Assistance : Marc-Olivier Méhu




SOURCES & CREDITS :

   NOAA       Earth
Advisory